Old Lyme, CT (06371)

5:00 AM EDT on September 21, 2014 (GMT -0400)
KCTOLDLY6 | Change Station
CLOSE
Current Station
Personal Weather Station
Location: Old Lyme EOC, CT
Elevation: 56 ft
Nearby Weather Stations
Active Advisory: Areal Flood Advisory

Elev 56 ft 41.36 °N, 72.30 °W | Updated 3 seconds ago

Rain
Rain
66.8 °F
Feels Like 66.8 °F
N
1.0
Wind Variable Wind from WNW
Gusts 4.0 mph

Today
High -- | Low -- °F
--% Chance of Precip.
Yesterday
High -- | Low -- °F
Precip. -- in
6:35 AM 6:48 PM
Waning Crescent, 8% visible
Pressure 29.97 in
Visibility 5.0 miles
Clouds Few 100 ft
Mostly Cloudy 1200 ft
Overcast 2700 ft
Dew Point 66 °F
Humidity 98%
Rainfall 0.15 in
Snow Depth Not available.
UV 0 out of 12
Pollen 2.70 out of 12
Air Quality Not available.
Flu Activity Not available.
METAR KSNC 210835Z AUTO 19005KT 5SM -RA FEW001 BKN012 OVC027 19/18 A2997 RMK AO2 P0004

More Conditions Fewer Conditions

Pressure 29.97 in
Visibility 5.0 miles
Clouds Few 100 ft
Mostly Cloudy 1200 ft
Overcast 2700 ft
Dew Point 66 °F
Humidity 98%
Rainfall 0.15 in
Snow Depth Not available.
UV 0 out of 12
Pollen 2.70 out of 12
Air Quality Not available.
Flu Activity Not available.
METAR KSNC 210835Z AUTO 19005KT 5SM -RA FEW001 BKN012 OVC027 19/18 A2997 RMK AO2 P0004

More Conditions Fewer Conditions

10-Day Weather Forecast

Almanac

Astronomy

Sep. 21, 2014 Rise Set
Actual Time 6:35 AM EDT 6:48 PM EDT
Civil Twilight 6:08 AM EDT 7:15 PM EDT
Nautical Twilight 5:35 AM EDT 7:48 PM EDT
Astronomical Twilight 5:02 AM EDT 8:21 PM EDT
Moon 4:05 AM EDT 5:23 PM EDT
Length of Visible Light 13h 07m
Length of Day
12h 12m
Tomorrow will be 2m 44s shorter.
Waning Crescent, 8% of the Moon is Illuminated
Today
Waning Crescent
Sep 24
New
Oct 1
First Quarter
Oct 8
Full
Oct 15
Last Quarter

Today's Extremes

State Highs State Lows

Community

WunderPhotos

Upload Photos

1,755,100 photos uploaded!

Nearby

Air Quality

  Air Quality AQ Index Pollutant
Sunday Good
OZONE
Sunday Good
PM2.5
Monday Good
OZONE
Monday Good
PM2.5

Snow Depth

Station Depth Elevation
No new snow has been reported.

Earthquake Activity

City Distance Mag. Time & Date
No recent earthquake activity has been reported nearby.
Minimum magnitude displayed is 2.5.

Coastal Water Temperatures

Place Temperature
New London, CT 66.9 °F
Newport, RI 66.9 °F
Quonset Point, RI 68.0 °F
Conimicut Light, RI 68.0 °F
Providence, RI 68.0 °F

Nearby Weather Stations